KOKC

Will Rogers World Airport

Oklahoma City, Oklahoma, USA
KOKC 211726Z 2118/2218 18025G32KT P6SM BKN250 FM220700 18021G30KT P6SM OVC020 TEMPO 2211/2215 6SM -DZ OVC009 FM221600 23018G26KT P6SM OVC015
Issued Valid From Valid To
Jan-21 @ 17:26 UTC
(3 hours ago)
Jan-21 @ 18:00 UTC
(2 hours ago)
Jan-22 @ 18:00 UTC
(in 22 hours)
Jan-21 @ 18:00 to Jan-22 @ 07:00
KOKC 211726Z 2118/2218 18025G32KT P6SM BKN250
Wind Visibility Clouds
180° at 25 knots
 Gusting to 32 knots
Greater than 6 miles
  • Broken at 25,000' AGL
From Jan-22 @ 07:00 to Jan-22 @ 16:00
FM220700 18021G30KT P6SM OVC020
Wind Visibility Clouds
180° at 21 knots
 Gusting to 30 knots
Greater than 6 miles
  • Overcast at 2,000' AGL
Temporary Jan-22 @ 11:00 to Jan-22 @ 15:00
TEMPO 2211/2215 6SM -DZ OVC009
Visibility Clouds Conditions
6 miles
  • Overcast at 900' AGL
  • Light Drizzle
From Jan-22 @ 16:00 to Jan-22 @ 18:00
FM221600 23018G26KT P6SM OVC015
Wind Visibility Clouds
230° at 18 knots
 Gusting to 26 knots
Greater than 6 miles
  • Overcast at 1,500' AGL
KOKC 211726Z 2118/2218 18025G32KT P6SM BKN250 FM220700 18021G30KT P6SM OVC020 TEMPO 2211/2215 6SM -DZ OVC009 FM221600 23018G26KT P6SM OVC015
Issued Jan-21 @ 17:26 UTC
(3 hours ago)
Valid From Jan-21 @ 18:00 UTC
(2 hours ago)
Valid To Jan-22 @ 18:00 UTC
(in 22 hours)
Jan-21 @ 18:00 - Jan-22 @ 07:00
Wind Visibility
180° at 25 knots
 Gusting to 32 knots
Greater than 6 miles
Clouds
  • Broken at 25,000' AGL
From Jan-22 @ 07:00 - Jan-22 @ 16:00
Wind Visibility
180° at 21 knots
 Gusting to 30 knots
Greater than 6 miles
Clouds
  • Overcast at 2,000' AGL
Temporary Jan-22 @ 11:00 - Jan-22 @ 15:00
Clouds
  • Overcast at 900' AGL
Conditions
  • Light Drizzle
From Jan-22 @ 16:00 - Jan-22 @ 18:00
Wind Visibility
230° at 18 knots
 Gusting to 26 knots
Greater than 6 miles
Clouds
  • Overcast at 1,500' AGL